createdAt,value
2023-02-16T00:02:30.747Z,100180.31
2023-02-16T00:05:23.861Z,100177.03
2023-02-16T00:08:10.507Z,100137.56
2023-02-16T00:11:15.258Z,100135.03
2023-02-16T00:14:02.185Z,100135.47
2023-02-16T00:16:48.827Z,100174.88
2023-02-16T00:19:38.714Z,100185.06
2023-02-16T00:22:25.009Z,100168.22
2023-02-16T00:25:11.303Z,100139.97
2023-02-16T00:27:57.589Z,100166.69
2023-02-16T00:30:44.099Z,100178.81
2023-02-16T00:33:31.011Z,100168.16
2023-02-16T00:36:17.459Z,100106.44
2023-02-16T00:39:03.714Z,100100.28
2023-02-16T00:41:54.556Z,100172.53
2023-02-16T00:44:47.997Z,100141.00
2023-02-16T00:47:37.974Z,100172.69
2023-02-16T00:50:32.976Z,100139.44
2023-02-16T00:53:19.538Z,100169.13
2023-02-16T00:56:06.073Z,100133.97
2023-02-16T00:58:52.943Z,100130.00
2023-02-16T01:01:39.720Z,100141.66
2023-02-16T01:04:26.672Z,100167.28
2023-02-16T01:07:33.216Z,100173.56
2023-02-16T01:10:38.152Z,100145.50
2023-02-16T01:13:27.686Z,100169.38
2023-02-16T01:16:19.274Z,100150.69
2023-02-16T01:19:05.707Z,100148.59
2023-02-16T01:21:51.925Z,100132.97
2023-02-16T01:24:38.380Z,100123.41
2023-02-16T01:27:24.861Z,100132.41
2023-02-16T01:30:15.444Z,100121.66
2023-02-16T01:33:04.079Z,100139.69
2023-02-16T01:35:53.479Z,100123.28
2023-02-16T01:38:40.088Z,100088.91
2023-02-16T01:41:32.856Z,100162.94
2023-02-16T01:44:51.402Z,100128.72
2023-02-16T01:47:47.778Z,100126.31
2023-02-16T01:50:54.364Z,100130.56
2023-02-16T01:54:16.284Z,100162.31
2023-02-16T01:57:23.139Z,100155.94
2023-02-16T02:00:15.351Z,100150.22
2023-02-16T02:03:23.067Z,100135.94
2023-02-16T02:06:18.014Z,100149.69
2023-02-16T02:09:29.033Z,100146.41
2023-02-16T02:12:44.286Z,100104.81
2023-02-16T02:15:32.747Z,100151.69
2023-02-16T02:18:19.298Z,100143.88
2023-02-16T02:21:43.187Z,100136.59
2023-02-16T02:24:39.069Z,100140.56
2023-02-16T02:27:31.252Z,100141.22
2023-02-16T02:30:37.587Z,100095.94
2023-02-16T02:34:03.509Z,100126.50
2023-02-16T02:36:58.812Z,100126.81
2023-02-16T02:39:54.179Z,100114.91
2023-02-16T02:43:11.789Z,100127.56
2023-02-16T02:46:11.717Z,100124.59
2023-02-16T02:48:58.457Z,100100.97
2023-02-16T02:51:44.781Z,100118.22
2023-02-16T02:54:57.633Z,100087.78
2023-02-16T02:58:08.492Z,100087.28
2023-02-16T03:00:56.326Z,100047.38
2023-02-16T03:03:48.478Z,100060.25
2023-02-16T03:06:40.736Z,100132.56
2023-02-16T03:09:27.583Z,100102.38
2023-02-16T03:12:33.279Z,100073.81
2023-02-16T03:15:20.559Z,100113.63
2023-02-16T03:18:29.642Z,100086.47
2023-02-16T03:21:34.969Z,100085.59
2023-02-16T03:24:46.989Z,100111.97
2023-02-16T03:27:56.527Z,100122.31
2023-02-16T03:30:44.873Z,100083.06
2023-02-16T03:33:32.070Z,100126.16
2023-02-16T03:36:18.677Z,100102.28
2023-02-16T03:39:06.491Z,100089.66
2023-02-16T03:41:55.062Z,100101.41
2023-02-16T03:44:41.282Z,100101.00
2023-02-16T03:47:27.561Z,100094.84
2023-02-16T03:50:14.826Z,100081.97
2023-02-16T03:53:07.846Z,100044.56
2023-02-16T03:55:54.206Z,100095.50
2023-02-16T03:58:40.539Z,100087.13
2023-02-16T04:01:26.623Z,100076.00
2023-02-16T04:04:14.713Z,100097.47
2023-02-16T04:07:01.028Z,100129.69
2023-02-16T04:09:47.281Z,100052.56
2023-02-16T04:12:36.357Z,100108.22
2023-02-16T04:15:26.336Z,100103.19
2023-02-16T04:18:12.876Z,100132.00
2023-02-16T04:20:59.046Z,100129.09
2023-02-16T04:23:45.481Z,100085.56
2023-02-16T04:26:33.205Z,100126.25
2023-02-16T04:29:19.730Z,100114.56
2023-02-16T04:32:06.333Z,100148.28
2023-02-16T04:34:52.568Z,100135.72
2023-02-16T04:37:39.306Z,100122.63
2023-02-16T04:40:25.779Z,100101.84
2023-02-16T04:43:12.351Z,100101.94
2023-02-16T04:45:58.669Z,100143.22
2023-02-16T04:48:45.379Z,100115.13
2023-02-16T04:51:31.805Z,100144.41
2023-02-16T04:54:18.387Z,100113.50
2023-02-16T04:57:05.239Z,100134.84
2023-02-16T04:59:51.481Z,100110.28
2023-02-16T05:02:37.865Z,100102.25
2023-02-16T05:05:24.170Z,100138.44
2023-02-16T05:08:10.122Z,100048.81
2023-02-16T05:11:15.057Z,100144.91
2023-02-16T05:14:19.823Z,100106.66
2023-02-16T05:17:06.491Z,100113.16
2023-02-16T05:19:55.702Z,100146.06
2023-02-16T05:22:43.562Z,100079.41
2023-02-16T05:25:29.769Z,100120.56
2023-02-16T05:28:16.312Z,100131.97
2023-02-16T05:31:03.083Z,100132.81
2023-02-16T05:33:49.951Z,100139.13
2023-02-16T05:36:36.784Z,100068.66
2023-02-16T05:39:22.940Z,100135.09
2023-02-16T05:42:09.280Z,100109.75
2023-02-16T05:44:55.381Z,100127.53
2023-02-16T05:47:42.368Z,100104.44
2023-02-16T05:50:28.716Z,100162.72
2023-02-16T05:53:18.904Z,100166.13
2023-02-16T05:56:07.381Z,100159.41
2023-02-16T05:58:54.032Z,100161.97
2023-02-16T06:01:41.033Z,100157.03
2023-02-16T06:04:28.620Z,100165.38
2023-02-16T06:07:15.083Z,100133.63
2023-02-16T06:10:01.464Z,100176.94
2023-02-16T06:12:47.781Z,100141.50
2023-02-16T06:15:34.248Z,100146.00
2023-02-16T06:18:21.251Z,100177.78
2023-02-16T06:21:07.379Z,100159.72
2023-02-16T06:23:53.615Z,100169.22
2023-02-16T06:26:40.944Z,100188.56
2023-02-16T06:29:27.324Z,100140.75
2023-02-16T06:32:13.822Z,100171.03
2023-02-16T06:35:00.271Z,100136.56
2023-02-16T06:37:46.905Z,100174.28
2023-02-16T06:40:33.475Z,100110.03
2023-02-16T06:43:20.232Z,100191.78
2023-02-16T06:46:06.568Z,100163.00
2023-02-16T06:48:53.875Z,100181.16
2023-02-16T06:51:40.295Z,100176.91
2023-02-16T06:54:26.521Z,100172.59
2023-02-16T06:57:12.848Z,100156.19
2023-02-16T06:59:59.053Z,100146.38
2023-02-16T07:02:46.634Z,100165.56
2023-02-16T07:05:33.021Z,100179.00
2023-02-16T07:08:19.184Z,100158.09
2023-02-16T07:11:05.919Z,100163.22
2023-02-16T07:13:52.565Z,100165.59
2023-02-16T07:16:39.468Z,100194.00
2023-02-16T07:19:25.953Z,100184.75
2023-02-16T07:22:12.370Z,100202.59
2023-02-16T07:25:00.591Z,100194.03
2023-02-16T07:27:46.988Z,100209.69
2023-02-16T07:30:33.762Z,100162.34
2023-02-16T07:33:21.145Z,100178.06
2023-02-16T07:36:08.741Z,100208.34
2023-02-16T07:38:55.281Z,100200.38
2023-02-16T07:41:42.089Z,100112.63
2023-02-16T07:44:28.897Z,100188.09
2023-02-16T07:47:15.142Z,100196.88
2023-02-16T07:50:01.738Z,100204.75
2023-02-16T07:52:48.102Z,100190.00
2023-02-16T07:55:45.126Z,100184.19
2023-02-16T07:58:31.599Z,100197.59
2023-02-16T08:01:17.948Z,100186.38
2023-02-16T08:04:04.340Z,100194.00
2023-02-16T08:06:51.264Z,100220.44
2023-02-16T08:09:37.488Z,100203.75
2023-02-16T08:12:24.600Z,100192.72
2023-02-16T08:15:12.020Z,100213.59
2023-02-16T08:17:58.784Z,100178.00
2023-02-16T08:21:02.687Z,100186.59
2023-02-16T08:23:56.310Z,100215.88
2023-02-16T08:26:44.783Z,100201.22
2023-02-16T08:29:32.764Z,100154.28
2023-02-16T08:32:20.126Z,100225.97
2023-02-16T08:35:07.993Z,100207.69
2023-02-16T08:37:54.828Z,100190.03
2023-02-16T08:40:48.572Z,100212.88
2023-02-16T08:43:35.784Z,100190.75
2023-02-16T08:46:23.010Z,100187.59
2023-02-16T08:49:11.215Z,100209.13
2023-02-16T08:51:58.843Z,100173.88
2023-02-16T08:54:45.269Z,100199.75
2023-02-16T08:57:35.796Z,100201.00
2023-02-16T09:00:34.556Z,100148.88
2023-02-16T09:03:21.146Z,100204.56
2023-02-16T09:06:10.129Z,100176.91
2023-02-16T09:08:57.383Z,100203.50
2023-02-16T09:11:43.811Z,100181.13
2023-02-16T09:14:30.448Z,100172.84
2023-02-16T09:17:16.752Z,100188.88
2023-02-16T09:20:03.561Z,100205.28
2023-02-16T09:22:50.344Z,100212.88
2023-02-16T09:25:39.007Z,100212.13
2023-02-16T09:28:25.215Z,100139.56
2023-02-16T09:31:20.372Z,100178.56
2023-02-16T09:34:19.418Z,100165.91
2023-02-16T09:37:05.537Z,100172.72
2023-02-16T09:39:52.333Z,100149.91
2023-02-16T09:42:59.841Z,100187.88
2023-02-16T09:45:49.298Z,100181.72
2023-02-16T09:48:42.931Z,100178.72
2023-02-16T09:51:41.060Z,100190.50
2023-02-16T09:54:42.378Z,100186.63
2023-02-16T09:57:31.599Z,100161.38
2023-02-16T10:00:27.089Z,100175.28
2023-02-16T10:03:26.988Z,100167.00
2023-02-16T10:06:13.634Z,100169.69
2023-02-16T10:09:20.806Z,100169.38
2023-02-16T10:12:11.621Z,100158.44
2023-02-16T10:15:09.380Z,100168.41
2023-02-16T10:18:03.315Z,100152.66
2023-02-16T10:20:53.653Z,100151.50
2023-02-16T10:23:55.610Z,100133.63
2023-02-16T10:26:46.305Z,100143.31
2023-02-16T10:29:32.854Z,100124.72
2023-02-16T10:32:28.969Z,100161.69
2023-02-16T10:35:20.479Z,100158.00
2023-02-16T10:38:32.864Z,100137.63
2023-02-16T10:41:36.973Z,100134.88
2023-02-16T10:44:30.709Z,100118.25
2023-02-16T10:47:40.075Z,100159.75
2023-02-16T10:50:32.996Z,100128.25
2023-02-16T10:53:35.341Z,100146.78
2023-02-16T10:56:40.366Z,100140.94
2023-02-16T10:59:44.411Z,100140.69
2023-02-16T11:02:41.894Z,100105.47
2023-02-16T11:05:33.288Z,100140.75
2023-02-16T11:08:20.033Z,100140.72
2023-02-16T11:11:12.138Z,100143.88
2023-02-16T11:14:02.945Z,100135.53
2023-02-16T11:17:07.394Z,100126.34
2023-02-16T11:20:01.654Z,100110.25
2023-02-16T11:22:48.412Z,100120.50
2023-02-16T11:25:35.100Z,100094.38
2023-02-16T11:28:32.076Z,100115.19
2023-02-16T11:31:19.035Z,100101.97
2023-02-16T11:34:24.194Z,100106.59
2023-02-16T11:37:26.005Z,100104.94
2023-02-16T11:40:28.918Z,100101.94
2023-02-16T11:43:19.859Z,100080.38
2023-02-16T11:46:18.668Z,100068.69
2023-02-16T11:49:22.264Z,100067.53
2023-02-16T11:52:24.227Z,100078.38
2023-02-16T11:55:20.072Z,100078.72
2023-02-16T11:58:14.333Z,100082.53
2023-02-16T12:01:25.857Z,100076.78
2023-02-16T12:04:33.647Z,100033.72
2023-02-16T12:07:27.180Z,100062.66
2023-02-16T12:10:22.804Z,100034.03
2023-02-16T12:13:34.907Z,100058.53
2023-02-16T12:16:35.209Z,100007.41
2023-02-16T12:19:49.049Z,99983.19
2023-02-16T12:23:29.161Z,100037.94
2023-02-16T12:26:31.717Z,100034.50
2023-02-16T12:29:31.025Z,100023.25
2023-02-16T12:32:32.933Z,100007.63
2023-02-16T12:35:31.729Z,99998.06
2023-02-16T12:38:53.660Z,100005.91
2023-02-16T12:41:42.853Z,100009.38
2023-02-16T12:44:32.216Z,100005.03
2023-02-16T12:47:26.585Z,100001.56
2023-02-16T12:50:19.346Z,100004.13
2023-02-16T12:53:22.426Z,99997.19
2023-02-16T12:56:17.783Z,99975.47
2023-02-16T12:59:24.005Z,99984.09
2023-02-16T13:02:31.372Z,99979.75
2023-02-16T13:05:35.837Z,99976.25
2023-02-16T13:08:43.248Z,99969.25
2023-02-16T13:11:37.416Z,99958.88
2023-02-16T13:14:28.349Z,99958.88
2023-02-16T13:17:20.997Z,99967.56
2023-02-16T13:20:20.130Z,99931.13
2023-02-16T13:23:24.055Z,99958.94
2023-02-16T13:26:24.976Z,99957.28
2023-02-16T13:29:37.414Z,99956.41
2023-02-16T13:32:23.821Z,99951.22
2023-02-16T13:35:41.803Z,99951.22
2023-02-16T13:38:45.253Z,99915.66
2023-02-16T13:41:45.731Z,99948.50
2023-02-16T13:44:44.630Z,99925.03
2023-02-16T13:47:37.281Z,99954.53
2023-02-16T13:50:28.271Z,99924.13
2023-02-16T13:53:20.917Z,99938.03
2023-02-16T13:56:28.662Z,99953.59
2023-02-16T13:59:22.293Z,99957.97
2023-02-16T14:02:13.283Z,99955.38
2023-02-16T14:05:01.634Z,99951.03
2023-02-16T14:08:18.863Z,99949.38
2023-02-16T14:11:10.723Z,99950.28
2023-02-16T14:13:57.175Z,99956.41
2023-02-16T14:16:44.017Z,99918.25
2023-02-16T14:19:35.563Z,99944.25
2023-02-16T14:22:57.520Z,99907.81
2023-02-16T14:25:44.415Z,99933.00
2023-02-16T14:28:35.313Z,99963.31
2023-02-16T14:31:23.762Z,99954.66
2023-02-16T14:34:36.485Z,99907.00
2023-02-16T14:37:29.995Z,99952.06
2023-02-16T14:40:17.691Z,99952.97
2023-02-16T14:43:44.093Z,99957.28
2023-02-16T14:46:52.052Z,99905.28
2023-02-16T14:50:09.176Z,99931.28
2023-02-16T14:53:28.335Z,99922.63
2023-02-16T14:56:33.168Z,99944.31
2023-02-16T14:59:46.397Z,99953.84
2023-02-16T15:02:35.496Z,99948.66
2023-02-16T15:05:24.748Z,99946.03
2023-02-16T15:08:17.154Z,99933.91
2023-02-16T15:11:16.050Z,99906.13
2023-02-16T15:14:09.245Z,99900.09
2023-02-16T15:16:57.997Z,99925.22
2023-02-16T15:19:44.412Z,99919.16
2023-02-16T15:22:30.731Z,99894.88
2023-02-16T15:25:25.716Z,99913.94
2023-02-16T15:28:11.951Z,99912.22
2023-02-16T15:31:01.604Z,99882.72
2023-02-16T15:33:58.654Z,99929.59
2023-02-16T15:36:45.770Z,99905.25
2023-02-16T15:39:48.327Z,99892.25
2023-02-16T15:42:44.044Z,99912.19
2023-02-16T15:45:37.828Z,99914.78
2023-02-16T15:48:32.540Z,99889.66
2023-02-16T15:51:24.912Z,99905.22
2023-02-16T15:54:24.857Z,99905.19
2023-02-16T15:57:31.120Z,99918.16
2023-02-16T16:00:21.216Z,99889.50
2023-02-16T16:03:12.486Z,99890.34
2023-02-16T16:06:04.999Z,99907.56
2023-02-16T16:08:51.616Z,99865.81
2023-02-16T16:11:38.242Z,99898.06
2023-02-16T16:14:27.021Z,99888.31
2023-02-16T16:17:16.554Z,99877.94
2023-02-16T16:20:41.594Z,99883.84
2023-02-16T16:23:28.264Z,99919.22
2023-02-16T16:26:19.702Z,99914.75
2023-02-16T16:29:37.172Z,99910.28
2023-02-16T16:32:28.795Z,99841.50
2023-02-16T16:35:36.095Z,99919.38
2023-02-16T16:38:37.032Z,99915.72
2023-02-16T16:41:28.107Z,99896.41
2023-02-16T16:44:35.175Z,99918.78
2023-02-16T16:47:36.504Z,99920.41
2023-02-16T16:50:39.714Z,99921.13
2023-02-16T16:53:29.428Z,99915.84
2023-02-16T16:56:16.125Z,99897.44
2023-02-16T16:59:02.377Z,99892.16
2023-02-16T17:01:50.307Z,99917.28
2023-02-16T17:04:36.953Z,99894.53
2023-02-16T17:07:23.158Z,99900.50
2023-02-16T17:10:09.865Z,99877.75
2023-02-16T17:12:58.884Z,99921.19
2023-02-16T17:16:02.543Z,99926.41
2023-02-16T17:18:48.991Z,99878.47
2023-02-16T17:21:35.251Z,99938.34
2023-02-16T17:24:21.962Z,99910.44
2023-02-16T17:27:09.230Z,99877.28
2023-02-16T17:29:55.892Z,99911.84
2023-02-16T17:32:42.364Z,99942.91
2023-02-16T17:35:30.912Z,99933.19
2023-02-16T17:38:20.999Z,99945.16
2023-02-16T17:41:07.466Z,99926.72
2023-02-16T17:43:54.555Z,99951.84
2023-02-16T17:46:40.721Z,99936.88
2023-02-16T17:49:27.021Z,99955.84
2023-02-16T17:52:13.489Z,99945.41
2023-02-16T17:54:59.574Z,99943.66
2023-02-16T17:57:46.008Z,99930.53
2023-02-16T18:00:38.172Z,99964.38
2023-02-16T18:03:25.085Z,99919.03
2023-02-16T18:06:19.383Z,99948.47
2023-02-16T18:09:05.462Z,99952.84
2023-02-16T18:11:51.745Z,99922.31
2023-02-16T18:14:38.253Z,99904.81
2023-02-16T18:17:24.552Z,99905.50
2023-02-16T18:20:16.049Z,99941.16
2023-02-16T18:23:02.468Z,99937.53
2023-02-16T18:25:48.727Z,99950.53
2023-02-16T18:28:35.409Z,99924.41
2023-02-16T18:31:21.770Z,99942.69
2023-02-16T18:34:09.491Z,99962.66
2023-02-16T18:36:55.806Z,99920.84
2023-02-16T18:39:42.858Z,99964.38
2023-02-16T18:42:29.296Z,99951.25
2023-02-16T18:45:15.777Z,99863.28
2023-02-16T18:48:02.440Z,99968.59
2023-02-16T18:50:49.021Z,99963.19
2023-02-16T18:53:37.609Z,99949.25
2023-02-16T18:56:24.162Z,99961.38
2023-02-16T18:59:10.939Z,99924.63
2023-02-16T19:01:59.059Z,99981.00
2023-02-16T19:04:45.728Z,99971.44
2023-02-16T19:07:32.650Z,99951.34
2023-02-16T19:10:19.286Z,99967.00
2023-02-16T19:13:07.025Z,99943.38
2023-02-16T19:15:53.513Z,99975.56
2023-02-16T19:18:39.988Z,99978.16
2023-02-16T19:21:26.571Z,99945.97
2023-02-16T19:24:13.214Z,99954.63
2023-02-16T19:26:59.760Z,99941.66
2023-02-16T19:29:48.875Z,99936.34
2023-02-16T19:32:35.067Z,99972.84
2023-02-16T19:35:21.619Z,99957.25
2023-02-16T19:38:08.103Z,99945.00
2023-02-16T19:40:54.421Z,99956.31
2023-02-16T19:43:42.233Z,99975.59
2023-02-16T19:46:30.110Z,99962.50
2023-02-16T19:49:17.061Z,99958.22
2023-02-16T19:52:04.633Z,99987.63
2023-02-16T19:54:50.774Z,99987.75
2023-02-16T19:57:37.141Z,99943.94
2023-02-16T20:00:23.412Z,99985.00
2023-02-16T20:03:10.224Z,99988.28
2023-02-16T20:05:56.764Z,99995.69
2023-02-16T20:08:44.635Z,99994.72
2023-02-16T20:11:31.931Z,99972.41
2023-02-16T20:14:18.538Z,99984.25
2023-02-16T20:17:04.747Z,99976.34
2023-02-16T20:19:51.532Z,99957.91
2023-02-16T20:22:37.997Z,99979.47
2023-02-16T20:25:24.328Z,99930.09
2023-02-16T20:28:10.479Z,99977.56
2023-02-16T20:30:56.862Z,99984.34
2023-02-16T20:33:43.429Z,99975.44
2023-02-16T20:36:29.632Z,99960.25
2023-02-16T20:39:16.200Z,99971.06
2023-02-16T20:42:02.588Z,99965.41
2023-02-16T20:44:49.053Z,99962.53
2023-02-16T20:47:35.354Z,99982.44
2023-02-16T20:50:21.755Z,99944.75
2023-02-16T20:53:08.442Z,99986.63
2023-02-16T20:56:09.504Z,99970.91
2023-02-16T20:58:57.161Z,99976.94
2023-02-16T21:01:50.693Z,99967.25
2023-02-16T21:04:38.571Z,99963.59
2023-02-16T21:07:24.835Z,99956.97
2023-02-16T21:10:13.523Z,99950.53
2023-02-16T21:12:59.859Z,99966.19
2023-02-16T21:15:46.087Z,99952.69
2023-02-16T21:18:32.818Z,99958.34
2023-02-16T21:21:19.955Z,99953.84
2023-02-16T21:24:06.332Z,99937.97
2023-02-16T21:26:52.891Z,99925.44
2023-02-16T21:29:39.695Z,99951.59
2023-02-16T21:32:26.351Z,99953.03
2023-02-16T21:35:12.689Z,99955.97
2023-02-16T21:37:59.565Z,99911.63
2023-02-16T21:41:04.459Z,99912.63
2023-02-16T21:44:06.117Z,99946.75
2023-02-16T21:46:52.263Z,99943.00
2023-02-16T21:49:41.193Z,99940.13
2023-02-16T21:52:27.758Z,99923.06
2023-02-16T21:55:32.667Z,99904.44
2023-02-16T21:58:18.806Z,99925.31
2023-02-16T22:01:05.270Z,99933.53
2023-02-16T22:03:58.443Z,99926.63
2023-02-16T22:06:47.658Z,99914.78
2023-02-16T22:09:34.541Z,99917.50
2023-02-16T22:12:23.226Z,99917.56
2023-02-16T22:15:09.725Z,99926.03
2023-02-16T22:17:56.318Z,99880.94
2023-02-16T22:20:42.911Z,99902.34
2023-02-16T22:23:29.491Z,99885.06
2023-02-16T22:26:22.605Z,99909.69
2023-02-16T22:29:09.821Z,99920.69
2023-02-16T22:31:56.001Z,99891.06
2023-02-16T22:34:42.324Z,99925.34
2023-02-16T22:37:28.628Z,99871.75
2023-02-16T22:40:15.397Z,99911.88
2023-02-16T22:43:01.792Z,99881.44
2023-02-16T22:45:48.159Z,99909.19
2023-02-16T22:48:35.808Z,99916.03
2023-02-16T22:51:22.140Z,99879.97
2023-02-16T22:54:08.444Z,99856.38
2023-02-16T22:56:55.024Z,99876.84
2023-02-16T22:59:41.417Z,99904.78
2023-02-16T23:02:28.039Z,99901.06
2023-02-16T23:05:14.140Z,99904.69
2023-02-16T23:08:00.481Z,99889.16
2023-02-16T23:10:59.855Z,99846.25
2023-02-16T23:13:45.908Z,99905.03
2023-02-16T23:16:32.534Z,99909.63
2023-02-16T23:19:22.198Z,99891.81
2023-02-16T23:22:08.601Z,99863.81
2023-02-16T23:25:14.904Z,99906.91
2023-02-16T23:28:03.503Z,99915.41
2023-02-16T23:30:49.934Z,99912.66
2023-02-16T23:33:36.397Z,99905.97
2023-02-16T23:36:22.685Z,99897.97
2023-02-16T23:39:12.457Z,99901.06
2023-02-16T23:41:59.074Z,99901.81
2023-02-16T23:44:45.577Z,99907.28
2023-02-16T23:47:32.271Z,99905.28
2023-02-16T23:50:18.504Z,99896.16
2023-02-16T23:53:04.532Z,99909.88
2023-02-16T23:56:28.128Z,99904.16
2023-02-16T23:59:14.357Z,99922.19
